Time;durP1;ratioP1;P1;durP2;ratioP2;P2;SDS_P1;SDS_P2;PMS_P1;PMS_P2;Temp;Humidity;BMP_temperature;BMP_pressure;BME280_temperature;BME280_humidity;BME280_pressure;Samples;Min_cycle;Max_cycle;Signal;HPM_P1;HPM_P2
2022/05/11 00:01:19;;;;;;;0.00;0.00;;;;;;;;;;1727986;28;20234;-65
2022/05/11 00:02:11;;;;;;;0.00;0.00;;;;;;;;;;1725540;28;20228;-65
2022/05/11 00:03:05;;;;;;;0.00;0.00;;;;;;;;;;1728987;28;20713;-65
2022/05/11 00:03:57;;;;;;;0.00;0.00;;;;;;;;;;1730532;28;20775;-65
2022/05/11 00:04:49;;;;;;;0.00;0.00;;;;;;;;;;1728837;28;20211;-65
2022/05/11 00:05:41;;;;;;;0.00;0.00;;;;;;;;;;1729215;28;20239;-65
2022/05/11 00:06:33;;;;;;;0.00;0.00;;;;;;;;;;1731641;28;20216;-65
2022/05/11 00:07:25;;;;;;;0.00;0.00;;;;;;;;;;1730505;28;20203;-65
2022/05/11 00:08:16;;;;;;;0.00;0.00;;;;;;;;;;1731348;28;20266;-65
2022/05/11 00:09:09;;;;;;;0.00;0.00;;;;;;;;;;1729122;28;20204;-65
2022/05/11 00:10:01;;;;;;;0.00;0.00;;;;;;;;;;1730459;28;20212;-65
2022/05/11 00:10:53;;;;;;;0.00;0.00;;;;;;;;;;1726812;28;20781;-65
2022/05/11 00:11:44;;;;;;;0.00;0.00;;;;;;;;;;1731446;28;20223;-65
2022/05/11 00:12:36;;;;;;;0.00;0.00;;;;;;;;;;1729287;28;20212;-65
2022/05/11 00:13:28;;;;;;;0.00;0.00;;;;;;;;;;1724218;28;20211;-65
2022/05/11 00:14:20;;;;;;;0.00;0.00;;;;;;;;;;1726629;28;20200;-65
2022/05/11 00:15:13;;;;;;;0.00;0.00;;;;;;;;;;1731477;28;20207;-65
2022/05/11 00:16:05;;;;;;;0.00;0.00;;;;;;;;;;1726107;28;20235;-65
2022/05/11 00:16:59;;;;;;;0.00;0.00;;;;;;;;;;1731593;28;20200;-65
2022/05/11 00:17:51;;;;;;;0.00;0.00;;;;;;;;;;1727729;28;20228;-65
2022/05/11 00:18:44;;;;;;;0.00;0.00;;;;;;;;;;1731266;28;20250;-65
2022/05/11 00:19:36;;;;;;;0.00;0.00;;;;;;;;;;1727877;28;20207;-65
2022/05/11 00:20:28;;;;;;;0.00;0.00;;;;;;;;;;1728542;28;20214;-65
2022/05/11 00:21:20;;;;;;;0.00;0.00;;;;;;;;;;1731013;28;20662;-65
2022/05/11 00:22:11;;;;;;;0.00;0.00;;;;;;;;;;1730807;28;20476;-65
2022/05/11 00:23:03;;;;;;;0.00;0.00;;;;;;;;;;1728709;28;20211;-65
2022/05/11 00:23:54;;;;;;;0.00;0.00;;;;;;;;;;1730267;28;20204;-65
2022/05/11 00:24:47;;;;;;;0.00;0.00;;;;;;;;;;1728970;28;20239;-65
2022/05/11 00:25:38;;;;;;;0.00;0.00;;;;;;;;;;1727884;28;20250;-65
2022/05/11 00:26:30;;;;;;;0.00;0.00;;;;;;;;;;1728684;28;20203;-65
2022/05/11 00:27:21;;;;;;;0.00;0.00;;;;;;;;;;1729418;28;20254;-65
2022/05/11 00:28:13;;;;;;;0.00;0.00;;;;;;;;;;1729599;28;20208;-65
2022/05/11 00:29:04;;;;;;;0.00;0.00;;;;;;;;;;1730695;28;20428;-65
2022/05/11 00:29:57;;;;;;;0.00;0.00;;;;;;;;;;1731306;28;20219;-66
2022/05/11 00:30:48;;;;;;;0.00;0.00;;;;;;;;;;1728314;28;20262;-65
2022/05/11 00:31:40;;;;;;;0.00;0.00;;;;;;;;;;1730401;28;20215;-65
2022/05/11 00:32:31;;;;;;;0.00;0.00;;;;;;;;;;1728057;28;20204;-65
2022/05/11 00:33:24;;;;;;;0.00;0.00;;;;;;;;;;1731332;28;20302;-65
2022/05/11 00:34:16;;;;;;;0.00;0.00;;;;;;;;;;1730035;28;20204;-65
2022/05/11 00:35:09;;;;;;;0.00;0.00;;;;;;;;;;1724780;28;20219;-65
2022/05/11 00:36:00;;;;;;;0.00;0.00;;;;;;;;;;1727565;28;20242;-65
2022/05/11 00:36:52;;;;;;;0.00;0.00;;;;;;;;;;1731866;28;20200;-65
2022/05/11 00:37:43;;;;;;;0.00;0.00;;;;;;;;;;1729669;28;20208;-65
2022/05/11 00:38:35;;;;;;;0.00;0.00;;;;;;;;;;1730842;28;20199;-65
2022/05/11 00:39:27;;;;;;;0.00;0.00;;;;;;;;;;1730696;28;20214;-65
2022/05/11 00:40:19;;;;;;;0.00;0.00;;;;;;;;;;1729090;28;20436;-65
2022/05/11 00:41:11;;;;;;;0.00;0.00;;;;;;;;;;1729809;28;20582;-65
2022/05/11 00:42:04;;;;;;;0.00;0.00;;;;;;;;;;1730999;28;20760;-65
2022/05/11 00:42:55;;;;;;;0.00;0.00;;;;;;;;;;1730292;28;20520;-65
2022/05/11 00:43:53;;;;;;;0.00;0.00;;;;;;;;;;1730900;28;20196;-65
2022/05/11 00:44:44;;;;;;;0.00;0.00;;;;;;;;;;1729889;28;20192;-65
2022/05/11 00:45:37;;;;;;;0.00;0.00;;;;;;;;;;1729259;28;20235;-65
2022/05/11 00:46:30;;;;;;;0.00;0.00;;;;;;;;;;1728959;28;20203;-65
2022/05/11 00:47:23;;;;;;;0.00;0.00;;;;;;;;;;1730338;28;20205;-65
2022/05/11 00:49:35;;;;;;;0.10;0.10;;;;;;;;;;1724782;28;20232;-65
2022/05/11 00:50:29;;;;;;;0.00;0.00;;;;;;;;;;1727438;28;20515;-65
2022/05/11 00:51:21;;;;;;;0.00;0.00;;;;;;;;;;1730488;28;20702;-65
2022/05/11 00:52:14;;;;;;;0.10;0.10;;;;;;;;;;1730096;28;20215;-65
2022/05/11 00:53:11;;;;;;;0.00;0.00;;;;;;;;;;1731338;28;20242;-65
2022/05/11 00:54:03;;;;;;;0.00;0.00;;;;;;;;;;1729992;28;20200;-65
2022/05/11 00:54:58;;;;;;;0.00;0.00;;;;;;;;;;1729874;28;20539;-65
2022/05/11 00:55:51;;;;;;;0.00;0.00;;;;;;;;;;1728991;28;20239;-65
2022/05/11 00:56:45;;;;;;;0.00;0.00;;;;;;;;;;1730845;28;20200;-65
2022/05/11 00:57:38;;;;;;;0.00;0.00;;;;;;;;;;1728202;28;20653;-65
2022/05/11 00:58:34;;;;;;;0.00;0.00;;;;;;;;;;1724651;28;20722;-65
2022/05/11 00:59:26;;;;;;;0.00;0.00;;;;;;;;;;1727291;28;20196;-65
2022/05/11 01:00:20;;;;;;;0.00;0.00;;;;;;;;;;1729448;28;20657;-65
2022/05/11 01:01:11;;;;;;;0.00;0.00;;;;;;;;;;1727417;28;20208;-65
2022/05/11 01:02:06;;;;;;;0.00;0.00;;;;;;;;;;1730867;28;20240;-65
2022/05/11 01:03:05;;;;;;;0.00;0.00;;;;;;;;;;1727625;28;20559;-65
2022/05/11 01:04:02;;;;;;;0.00;0.00;;;;;;;;;;1729524;28;20600;-65
2022/05/11 01:05:00;;;;;;;0.00;0.00;;;;;;;;;;1729297;28;20566;-65
2022/05/11 01:05:53;;;;;;;0.00;0.00;;;;;;;;;;1728814;28;20290;-66
2022/05/11 01:06:44;;;;;;;0.00;0.00;;;;;;;;;;1731570;28;20353;-65
2022/05/11 01:07:37;;;;;;;0.00;0.00;;;;;;;;;;1726697;28;20967;-65
2022/05/11 01:08:29;;;;;;;0.00;0.00;;;;;;;;;;1731067;28;20208;-65
2022/05/11 01:09:21;;;;;;;0.00;0.00;;;;;;;;;;1727200;28;20305;-65
2022/05/11 01:10:12;;;;;;;0.00;0.00;;;;;;;;;;1731297;28;20208;-65
2022/05/11 01:11:05;;;;;;;0.00;0.00;;;;;;;;;;1724923;28;20235;-65
2022/05/11 01:11:59;;;;;;;0.00;0.00;;;;;;;;;;1731574;28;20235;-65
2022/05/11 01:12:52;;;;;;;0.00;0.00;;;;;;;;;;1730712;28;21079;-65
2022/05/11 01:13:44;;;;;;;0.00;0.00;;;;;;;;;;1731309;28;20204;-65
2022/05/11 01:14:39;;;;;;;0.00;0.00;;;;;;;;;;1728117;28;20770;-65
2022/05/11 01:15:32;;;;;;;0.00;0.00;;;;;;;;;;1727036;28;20227;-65
2022/05/11 01:16:25;;;;;;;0.00;0.00;;;;;;;;;;1731253;28;20708;-65
2022/05/11 01:17:18;;;;;;;0.00;0.00;;;;;;;;;;1730532;28;20214;-65
2022/05/11 01:18:11;;;;;;;0.00;0.00;;;;;;;;;;1731211;28;20203;-65
2022/05/11 01:19:04;;;;;;;0.00;0.00;;;;;;;;;;1730392;28;20208;-65
2022/05/11 01:19:57;;;;;;;0.00;0.00;;;;;;;;;;1731084;28;20204;-64
2022/05/11 01:20:49;;;;;;;0.00;0.00;;;;;;;;;;1728230;28;21140;-65
2022/05/11 01:21:43;;;;;;;0.00;0.00;;;;;;;;;;1730395;28;20499;-65
2022/05/11 01:22:37;;;;;;;0.00;0.00;;;;;;;;;;1730099;28;20243;-65
2022/05/11 01:23:33;;;;;;;0.00;0.00;;;;;;;;;;1724954;28;20675;-65
2022/05/11 01:24:28;;;;;;;0.00;0.00;;;;;;;;;;1728008;28;20200;-65
2022/05/11 01:25:20;;;;;;;0.00;0.00;;;;;;;;;;1729877;28;20265;-65
2022/05/11 01:26:12;;;;;;;0.00;0.00;;;;;;;;;;1730283;28;20200;-65
2022/05/11 01:27:23;;;;;;;0.00;0.00;;;;;;;;;;1730499;28;20520;-65
2022/05/11 01:28:15;;;;;;;0.00;0.00;;;;;;;;;;1731032;28;20492;-65
2022/05/11 01:29:07;;;;;;;0.00;0.00;;;;;;;;;;1730292;28;20204;-64
2022/05/11 01:29:59;;;;;;;0.00;0.00;;;;;;;;;;1731154;28;20211;-64
2022/05/11 01:30:52;;;;;;;0.00;0.00;;;;;;;;;;1726438;28;20236;-64
2022/05/11 01:32:41;;;;;;;0.00;0.00;;;;;;;;;;1719414;28;20321;-65
2022/05/11 01:33:34;;;;;;;0.00;0.00;;;;;;;;;;1730733;28;20380;-65
2022/05/11 01:34:25;;;;;;;0.00;0.00;;;;;;;;;;1730091;28;20211;-64
2022/05/11 01:35:39;;;;;;;0.00;0.00;;;;;;;;;;1734878;28;20211;-65
2022/05/11 01:36:34;;;;;;;0.00;0.00;;;;;;;;;;1729254;28;20191;-65
2022/05/11 01:37:25;;;;;;;0.00;0.00;;;;;;;;;;1732546;28;20239;-65
2022/05/11 01:38:23;;;;;;;0.00;0.00;;;;;;;;;;1732008;28;20214;-65
2022/05/11 01:39:14;;;;;;;0.00;0.00;;;;;;;;;;1732275;28;20215;-65
2022/05/11 01:40:09;;;;;;;0.00;0.00;;;;;;;;;;1734469;28;20211;-64
2022/05/11 01:41:01;;;;;;;0.00;0.00;;;;;;;;;;1727505;28;20236;-65
2022/05/11 01:41:54;;;;;;;0.00;0.00;;;;;;;;;;1731237;28;20230;-64
2022/05/11 01:42:48;;;;;;;0.00;0.00;;;;;;;;;;1733028;28;20203;-65
2022/05/11 01:43:42;;;;;;;0.00;0.00;;;;;;;;;;1731029;28;20196;-65
2022/05/11 01:44:33;;;;;;;0.00;0.00;;;;;;;;;;1732280;28;20208;-65
2022/05/11 01:45:25;;;;;;;0.00;0.00;;;;;;;;;;1728284;28;20618;-64
2022/05/11 01:46:17;;;;;;;0.00;0.00;;;;;;;;;;1733656;28;20615;-64
2022/05/11 01:47:09;;;;;;;0.00;0.00;;;;;;;;;;1731903;28;20281;-64
2022/05/11 01:48:01;;;;;;;0.00;0.00;;;;;;;;;;1732364;28;20212;-65
2022/05/11 01:48:54;;;;;;;0.00;0.00;;;;;;;;;;1731668;28;20650;-65
2022/05/11 01:49:45;;;;;;;0.00;0.00;;;;;;;;;;1732483;28;20204;-64
2022/05/11 01:50:37;;;;;;;0.00;0.00;;;;;;;;;;1729953;28;20243;-64
2022/05/11 01:51:29;;;;;;;0.00;0.00;;;;;;;;;;1732051;28;20214;-65
2022/05/11 01:52:21;;;;;;;0.00;0.00;;;;;;;;;;1731727;28;20218;-65
2022/05/11 01:53:12;;;;;;;0.00;0.00;;;;;;;;;;1734340;28;20204;-64
2022/05/11 01:54:04;;;;;;;0.00;0.00;;;;;;;;;;1732671;28;20307;-65
2022/05/11 01:54:55;;;;;;;0.00;0.00;;;;;;;;;;1733645;28;20200;-65
2022/05/11 01:55:49;;;;;;;0.00;0.00;;;;;;;;;;1731327;28;20258;-65
2022/05/11 01:56:40;;;;;;;0.00;0.00;;;;;;;;;;1733334;28;20665;-65
2022/05/11 01:57:33;;;;;;;0.00;0.00;;;;;;;;;;1731221;28;20573;-65
2022/05/11 01:58:24;;;;;;;0.00;0.00;;;;;;;;;;1731905;28;20207;-65
2022/05/11 01:59:17;;;;;;;0.00;0.00;;;;;;;;;;1734607;28;20200;-65
2022/05/11 02:00:09;;;;;;;0.00;0.00;;;;;;;;;;1725215;28;20207;-65
2022/05/11 02:01:01;;;;;;;0.00;0.00;;;;;;;;;;1732217;28;20340;-65
2022/05/11 02:01:53;;;;;;;0.00;0.00;;;;;;;;;;1732247;28;20621;-65
2022/05/11 02:02:45;;;;;;;0.00;0.00;;;;;;;;;;1735074;28;20569;-65
2022/05/11 02:03:36;;;;;;;0.00;0.00;;;;;;;;;;1731974;28;20234;-64
2022/05/11 02:07:57;;;;;;;0.00;0.00;;;;;;;;;;1732201;28;20183;-64
2022/05/11 02:08:48;;;;;;;0.00;0.00;;;;;;;;;;1732967;28;20685;-64
2022/05/11 02:09:41;;;;;;;0.00;0.00;;;;;;;;;;1731962;28;20238;-65
2022/05/11 02:10:33;;;;;;;0.00;0.00;;;;;;;;;;1730119;28;20247;-65
2022/05/11 02:11:27;;;;;;;0.00;0.00;;;;;;;;;;1734795;28;20203;-65
2022/05/11 02:12:18;;;;;;;0.00;0.00;;;;;;;;;;1732198;28;20593;-64
2022/05/11 02:13:10;;;;;;;0.00;0.00;;;;;;;;;;1732620;28;20207;-65
2022/05/11 02:14:02;;;;;;;0.00;0.00;;;;;;;;;;1732240;28;20215;-65
2022/05/11 02:14:54;;;;;;;0.00;0.00;;;;;;;;;;1734460;28;20236;-65
2022/05/11 02:15:45;;;;;;;0.00;0.00;;;;;;;;;;1731631;28;20234;-65
2022/05/11 02:16:37;;;;;;;0.00;0.00;;;;;;;;;;1732746;28;20281;-65
2022/05/11 02:17:29;;;;;;;0.00;0.00;;;;;;;;;;1733694;28;20269;-65
2022/05/11 02:18:21;;;;;;;0.00;0.00;;;;;;;;;;1732927;28;20210;-64
2022/05/11 02:19:13;;;;;;;0.00;0.00;;;;;;;;;;1734751;28;20650;-65
2022/05/11 02:20:06;;;;;;;0.00;0.00;;;;;;;;;;1732145;28;20527;-65
2022/05/11 02:20:57;;;;;;;0.00;0.00;;;;;;;;;;1729705;28;20283;-65
2022/05/11 02:21:49;;;;;;;0.00;0.00;;;;;;;;;;1731960;28;20223;-65
2022/05/11 02:22:41;;;;;;;0.00;0.00;;;;;;;;;;1733521;28;20511;-65
2022/05/11 02:23:33;;;;;;;0.00;0.00;;;;;;;;;;1732582;28;20650;-65
2022/05/11 02:24:24;;;;;;;0.00;0.00;;;;;;;;;;1731611;28;20203;-65
2022/05/11 02:25:17;;;;;;;0.00;0.00;;;;;;;;;;1730969;28;20234;-65
2022/05/11 02:26:09;;;;;;;0.00;0.00;;;;;;;;;;1732247;28;20199;-65
2022/05/11 02:27:04;;;;;;;0.00;0.00;;;;;;;;;;1732263;28;20215;-65
2022/05/11 02:27:55;;;;;;;0.00;0.00;;;;;;;;;;1734888;28;20203;-64
2022/05/11 02:28:48;;;;;;;0.00;0.00;;;;;;;;;;1730827;28;20195;-64
2022/05/11 02:29:40;;;;;;;0.00;0.00;;;;;;;;;;1732244;28;20254;-64
2022/05/11 02:30:33;;;;;;;0.00;0.00;;;;;;;;;;1729073;28;20204;-65
2022/05/11 02:31:24;;;;;;;0.00;0.00;;;;;;;;;;1734822;28;20294;-65
2022/05/11 02:32:16;;;;;;;0.00;0.00;;;;;;;;;;1734258;28;20634;-65
2022/05/11 02:33:08;;;;;;;0.10;0.10;;;;;;;;;;1735557;28;20216;-65
2022/05/11 02:34:02;;;;;;;0.00;0.00;;;;;;;;;;1737762;28;20646;-65
2022/05/11 02:35:12;;;;;;;0.00;0.00;;;;;;;;;;1738454;28;20206;-65
2022/05/11 02:36:04;;;;;;;0.00;0.00;;;;;;;;;;1739909;28;20720;-65
2022/05/11 02:36:55;;;;;;;0.00;0.00;;;;;;;;;;1739187;28;20199;-65
2022/05/11 02:37:50;;;;;;;0.00;0.00;;;;;;;;;;1738128;28;20203;-65
2022/05/11 02:38:42;;;;;;;0.00;0.00;;;;;;;;;;1737936;28;20203;-65
2022/05/11 02:39:34;;;;;;;0.00;0.00;;;;;;;;;;1738953;28;20201;-65
2022/05/11 02:40:27;;;;;;;0.00;0.00;;;;;;;;;;1736469;28;20656;-65
2022/05/11 02:41:18;;;;;;;0.00;0.00;;;;;;;;;;1736646;28;20211;-64
2022/05/11 02:42:11;;;;;;;0.00;0.00;;;;;;;;;;1738709;28;20276;-65
2022/05/11 02:43:03;;;;;;;0.00;0.00;;;;;;;;;;1738402;28;20207;-64
2022/05/11 02:43:55;;;;;;;0.00;0.00;;;;;;;;;;1737445;28;20214;-65
2022/05/11 02:44:46;;;;;;;0.00;0.00;;;;;;;;;;1737822;28;20587;-64
2022/05/11 02:45:40;;;;;;;0.00;0.00;;;;;;;;;;1736794;28;20318;-65
2022/05/11 02:46:31;;;;;;;0.00;0.00;;;;;;;;;;1741020;28;20427;-65
2022/05/11 02:47:24;;;;;;;0.00;0.00;;;;;;;;;;1736692;28;20200;-64
2022/05/11 02:48:16;;;;;;;0.00;0.00;;;;;;;;;;1738904;28;20203;-64
2022/05/11 02:49:08;;;;;;;0.00;0.00;;;;;;;;;;1737424;28;20215;-65
2022/05/11 02:50:00;;;;;;;0.00;0.00;;;;;;;;;;1738974;28;20207;-65
2022/05/11 02:50:53;;;;;;;0.00;0.00;;;;;;;;;;1738343;28;20326;-65
2022/05/11 02:51:44;;;;;;;0.00;0.00;;;;;;;;;;1739258;28;20624;-65
2022/05/11 02:52:37;;;;;;;0.00;0.00;;;;;;;;;;1736491;28;20261;-64
2022/05/11 02:53:28;;;;;;;0.00;0.00;;;;;;;;;;1738521;28;20509;-64
2022/05/11 02:54:21;;;;;;;0.00;0.00;;;;;;;;;;1737700;28;20229;-65
2022/05/11 02:55:12;;;;;;;0.00;0.00;;;;;;;;;;1738012;28;20203;-65
2022/05/11 02:56:04;;;;;;;0.00;0.00;;;;;;;;;;1736701;28;20234;-65
2022/05/11 02:56:56;;;;;;;0.00;0.00;;;;;;;;;;1739342;28;20209;-64
2022/05/11 02:57:49;;;;;;;0.00;0.00;;;;;;;;;;1737330;28;20230;-64
2022/05/11 02:58:40;;;;;;;0.00;0.00;;;;;;;;;;1738278;28;20203;-65
2022/05/11 02:59:33;;;;;;;0.00;0.00;;;;;;;;;;1736737;28;20297;-64
2022/05/11 03:00:24;;;;;;;0.00;0.00;;;;;;;;;;1736117;28;20211;-65
2022/05/11 03:01:16;;;;;;;0.00;0.00;;;;;;;;;;1741400;28;20205;-64
2022/05/11 03:02:07;;;;;;;0.00;0.00;;;;;;;;;;1738044;28;20750;-65
2022/05/11 03:03:00;;;;;;;0.00;0.00;;;;;;;;;;1738206;28;20234;-64
2022/05/11 03:03:51;;;;;;;0.00;0.00;;;;;;;;;;1738128;28;20467;-65
2022/05/11 03:04:44;;;;;;;0.00;0.00;;;;;;;;;;1738160;28;20210;-64
2022/05/11 03:05:35;;;;;;;0.00;0.00;;;;;;;;;;1734866;28;20739;-65
2022/05/11 03:06:28;;;;;;;0.00;0.00;;;;;;;;;;1741729;28;20195;-64
2022/05/11 03:07:19;;;;;;;0.00;0.00;;;;;;;;;;1738416;28;20297;-65
2022/05/11 03:08:11;;;;;;;0.00;0.00;;;;;;;;;;1738521;28;20235;-65
2022/05/11 03:09:03;;;;;;;0.00;0.00;;;;;;;;;;1738397;28;20207;-64
2022/05/11 03:09:55;;;;;;;0.00;0.00;;;;;;;;;;1738343;28;20252;-65
2022/05/11 03:10:48;;;;;;;0.03;0.03;;;;;;;;;;1735771;28;20231;-65
2022/05/11 03:11:40;;;;;;;0.00;0.00;;;;;;;;;;1737707;28;20257;-64
2022/05/11 03:12:32;;;;;;;0.00;0.00;;;;;;;;;;1737543;28;20203;-65
2022/05/11 03:13:26;;;;;;;0.00;0.00;;;;;;;;;;1739181;28;20817;-65
2022/05/11 03:14:17;;;;;;;0.00;0.00;;;;;;;;;;1738011;28;20214;-64
2022/05/11 03:15:11;;;;;;;0.00;0.00;;;;;;;;;;1732312;28;20242;-65
2022/05/11 03:16:02;;;;;;;0.00;0.00;;;;;;;;;;1735606;28;20243;-65
2022/05/11 03:16:55;;;;;;;0.00;0.00;;;;;;;;;;1738466;28;20404;-65
2022/05/11 03:17:46;;;;;;;0.00;0.00;;;;;;;;;;1737194;28;20225;-65
2022/05/11 03:18:38;;;;;;;0.00;0.00;;;;;;;;;;1738438;28;20207;-65
2022/05/11 03:19:30;;;;;;;0.00;0.00;;;;;;;;;;1738681;28;20199;-65
2022/05/11 03:20:23;;;;;;;0.00;0.00;;;;;;;;;;1736771;28;20679;-64
2022/05/11 03:21:14;;;;;;;0.00;0.00;;;;;;;;;;1738750;28;20703;-64
2022/05/11 03:22:06;;;;;;;0.00;0.00;;;;;;;;;;1738512;28;20516;-64
2022/05/11 03:22:58;;;;;;;0.00;0.00;;;;;;;;;;1738594;28;20217;-64
2022/05/11 03:23:50;;;;;;;0.00;0.00;;;;;;;;;;1737465;28;20638;-65
2022/05/11 03:24:41;;;;;;;0.00;0.00;;;;;;;;;;1737570;28;20608;-65
2022/05/11 03:25:33;;;;;;;0.00;0.00;;;;;;;;;;1736200;28;20701;-65
2022/05/11 03:26:25;;;;;;;0.00;0.00;;;;;;;;;;1738949;28;20680;-65
2022/05/11 03:27:17;;;;;;;0.00;0.00;;;;;;;;;;1737624;28;20422;-64
2022/05/11 03:28:08;;;;;;;0.00;0.00;;;;;;;;;;1735924;28;20207;-65
2022/05/11 03:29:05;;;;;;;0.00;0.00;;;;;;;;;;1737370;28;20209;-65
2022/05/11 03:29:56;;;;;;;0.00;0.00;;;;;;;;;;1737967;28;20294;-65
2022/05/11 03:30:48;;;;;;;0.00;0.00;;;;;;;;;;1735055;28;20233;-65
2022/05/11 03:31:40;;;;;;;0.00;0.00;;;;;;;;;;1738349;28;20222;-65
2022/05/11 03:34:53;;;;;;;0.00;0.00;;;;;;;;;;1736519;28;20209;-65
2022/05/11 03:35:44;;;;;;;0.00;0.00;;;;;;;;;;1735517;28;20947;-65
2022/05/11 03:36:36;;;;;;;0.00;0.00;;;;;;;;;;1738347;28;20416;-65
2022/05/11 03:37:27;;;;;;;0.00;0.00;;;;;;;;;;1737515;28;20564;-65
2022/05/11 03:38:20;;;;;;;0.00;0.00;;;;;;;;;;1738411;28;20280;-65
2022/05/11 03:39:11;;;;;;;0.00;0.00;;;;;;;;;;1737995;28;20211;-65
2022/05/11 03:40:05;;;;;;;0.00;0.00;;;;;;;;;;1738708;28;20211;-65
2022/05/11 03:40:58;;;;;;;0.00;0.00;;;;;;;;;;1735278;28;20292;-65
2022/05/11 03:41:49;;;;;;;0.00;0.00;;;;;;;;;;1731113;28;20227;-65
2022/05/11 03:42:42;;;;;;;0.00;0.00;;;;;;;;;;1735587;28;20294;-65
2022/05/11 03:43:33;;;;;;;0.00;0.00;;;;;;;;;;1738742;28;20712;-65
2022/05/11 03:44:27;;;;;;;0.00;0.00;;;;;;;;;;1735962;28;20207;-65
2022/05/11 03:45:20;;;;;;;0.00;0.00;;;;;;;;;;1736658;28;20629;-65
2022/05/11 03:46:12;;;;;;;0.00;0.00;;;;;;;;;;1737601;28;20199;-65
2022/05/11 03:47:04;;;;;;;0.00;0.00;;;;;;;;;;1738544;28;20210;-66
2022/05/11 03:47:56;;;;;;;0.00;0.00;;;;;;;;;;1737673;28;20191;-65
2022/05/11 03:48:47;;;;;;;0.00;0.00;;;;;;;;;;1737449;28;20206;-65
2022/05/11 03:49:39;;;;;;;0.00;0.00;;;;;;;;;;1737136;28;20319;-65
2022/05/11 03:50:32;;;;;;;0.00;0.00;;;;;;;;;;1736040;28;20549;-65
2022/05/11 03:51:26;;;;;;;0.00;0.00;;;;;;;;;;1738322;28;20210;-65
2022/05/11 03:52:18;;;;;;;0.00;0.00;;;;;;;;;;1736960;28;20619;-65
2022/05/11 03:53:10;;;;;;;0.00;0.00;;;;;;;;;;1736640;28;20325;-65
2022/05/11 03:54:01;;;;;;;0.00;0.00;;;;;;;;;;1737093;28;20348;-66
2022/05/11 03:54:53;;;;;;;0.00;0.00;;;;;;;;;;1738393;28;20593;-65
2022/05/11 03:55:44;;;;;;;0.00;0.00;;;;;;;;;;1736543;28;20249;-65
2022/05/11 03:56:37;;;;;;;0.00;0.00;;;;;;;;;;1739087;28;20211;-65
2022/05/11 03:57:28;;;;;;;0.00;0.00;;;;;;;;;;1738304;28;20438;-66
2022/05/11 03:58:20;;;;;;;0.00;0.00;;;;;;;;;;1738574;28;20203;-66
2022/05/11 03:59:11;;;;;;;0.00;0.00;;;;;;;;;;1738178;28;20246;-66
2022/05/11 04:00:06;;;;;;;0.00;0.00;;;;;;;;;;1737905;28;20226;-65
2022/05/11 04:00:57;;;;;;;0.00;0.00;;;;;;;;;;1738572;28;20238;-66
2022/05/11 04:01:49;;;;;;;0.00;0.00;;;;;;;;;;1738228;28;20218;-66
2022/05/11 04:02:41;;;;;;;0.00;0.00;;;;;;;;;;1737584;28;20620;-65
2022/05/11 04:03:33;;;;;;;0.00;0.00;;;;;;;;;;1738929;28;20565;-65
2022/05/11 04:04:24;;;;;;;0.00;0.00;;;;;;;;;;1737454;28;20581;-65
2022/05/11 04:05:17;;;;;;;0.00;0.00;;;;;;;;;;1737065;28;20205;-65
2022/05/11 04:06:08;;;;;;;0.00;0.00;;;;;;;;;;1736369;28;20203;-66
2022/05/11 04:07:00;;;;;;;0.00;0.00;;;;;;;;;;1738004;28;20206;-66
2022/05/11 04:07:51;;;;;;;0.00;0.00;;;;;;;;;;1738287;28;20214;-65
2022/05/11 04:08:43;;;;;;;0.00;0.00;;;;;;;;;;1737800;28;20483;-65
2022/05/11 04:09:35;;;;;;;0.00;0.00;;;;;;;;;;1737937;28;20210;-65
2022/05/11 04:10:27;;;;;;;0.00;0.00;;;;;;;;;;1735056;28;20207;-66
2022/05/11 04:11:19;;;;;;;0.00;0.00;;;;;;;;;;1737932;28;20211;-65
2022/05/11 04:12:11;;;;;;;0.00;0.00;;;;;;;;;;1736824;28;20632;-65
2022/05/11 04:13:03;;;;;;;0.00;0.00;;;;;;;;;;1737198;28;20423;-65
2022/05/11 04:13:56;;;;;;;0.00;0.00;;;;;;;;;;1738160;28;20191;-65
2022/05/11 04:14:47;;;;;;;0.00;0.00;;;;;;;;;;1738458;28;20570;-65
2022/05/11 04:15:41;;;;;;;0.00;0.00;;;;;;;;;;1735542;28;20231;-65
2022/05/11 04:16:32;;;;;;;0.00;0.00;;;;;;;;;;1740629;28;20206;-66
2022/05/11 04:17:25;;;;;;;0.00;0.00;;;;;;;;;;1737809;28;20556;-65
2022/05/11 04:18:16;;;;;;;0.00;0.00;;;;;;;;;;1738210;28;20203;-65
2022/05/11 04:19:09;;;;;;;0.00;0.00;;;;;;;;;;1736927;28;20274;-65
2022/05/11 04:20:00;;;;;;;0.00;0.00;;;;;;;;;;1738457;28;20210;-66
2022/05/11 04:20:52;;;;;;;0.00;0.00;;;;;;;;;;1735500;28;20250;-65
2022/05/11 04:21:43;;;;;;;0.00;0.00;;;;;;;;;;1738620;28;20275;-65
2022/05/11 04:22:36;;;;;;;0.00;0.00;;;;;;;;;;1737311;28;20199;-66
2022/05/11 04:23:27;;;;;;;0.00;0.00;;;;;;;;;;1738436;28;20577;-65
2022/05/11 04:24:19;;;;;;;0.00;0.00;;;;;;;;;;1737312;28;20314;-65
2022/05/11 04:25:14;;;;;;;0.00;0.00;;;;;;;;;;1737649;28;20611;-66
2022/05/11 04:26:06;;;;;;;0.00;0.00;;;;;;;;;;1736115;28;20264;-65
2022/05/11 04:26:58;;;;;;;0.00;0.00;;;;;;;;;;1738666;28;20541;-66
2022/05/11 04:27:51;;;;;;;0.00;0.00;;;;;;;;;;1738162;28;20225;-66
2022/05/11 04:28:43;;;;;;;0.00;0.00;;;;;;;;;;1737900;28;20571;-65
2022/05/11 04:29:36;;;;;;;0.00;0.00;;;;;;;;;;1738152;28;20310;-66
2022/05/11 04:30:31;;;;;;;0.00;0.00;;;;;;;;;;1729020;28;20203;-66
2022/05/11 04:31:24;;;;;;;0.00;0.00;;;;;;;;;;1735960;28;20199;-65
2022/05/11 04:32:16;;;;;;;0.00;0.00;;;;;;;;;;1737715;28;20243;-65
2022/05/11 04:33:08;;;;;;;0.00;0.00;;;;;;;;;;1738503;28;20286;-66
2022/05/11 04:33:59;;;;;;;0.00;0.00;;;;;;;;;;1737346;28;20702;-65
2022/05/11 04:34:51;;;;;;;0.00;0.00;;;;;;;;;;1738663;28;20219;-66
2022/05/11 04:35:42;;;;;;;0.00;0.00;;;;;;;;;;1734411;28;20308;-65
2022/05/11 04:36:37;;;;;;;0.00;0.00;;;;;;;;;;1738156;28;20206;-65
2022/05/11 04:37:28;;;;;;;0.00;0.00;;;;;;;;;;1731130;28;20208;-65
2022/05/11 04:38:20;;;;;;;0.00;0.00;;;;;;;;;;1737180;28;20195;-65
2022/05/11 04:39:11;;;;;;;0.00;0.00;;;;;;;;;;1737667;28;20214;-65
2022/05/11 04:40:04;;;;;;;0.00;0.00;;;;;;;;;;1739831;28;20209;-65
2022/05/11 04:40:58;;;;;;;0.00;0.00;;;;;;;;;;1736321;28;20608;-65
2022/05/11 04:41:50;;;;;;;0.00;0.00;;;;;;;;;;1738274;28;20273;-64
2022/05/11 04:42:42;;;;;;;0.00;0.00;;;;;;;;;;1737691;28;20207;-65
2022/05/11 04:43:35;;;;;;;0.00;0.00;;;;;;;;;;1738007;28;20276;-66
2022/05/11 04:44:26;;;;;;;0.00;0.00;;;;;;;;;;1736537;28;20696;-65
2022/05/11 04:45:18;;;;;;;0.00;0.00;;;;;;;;;;1736664;28;20864;-65
2022/05/11 04:46:09;;;;;;;0.00;0.00;;;;;;;;;;1736817;28;20214;-65
2022/05/11 04:47:08;;;;;;;0.00;0.00;;;;;;;;;;1738017;28;20514;-65
2022/05/11 04:47:59;;;;;;;0.00;0.00;;;;;;;;;;1737362;28;20199;-66
2022/05/11 04:49:16;;;;;;;0.00;0.00;;;;;;;;;;1737472;28;20199;-65
2022/05/11 04:50:02;;;;;;;0.00;0.00;;;;;;;;;;1736332;28;20203;-65
2022/05/11 04:51:00;;;;;;;0.00;0.00;;;;;;;;;;1735149;28;20242;-66
2022/05/11 04:51:52;;;;;;;0.00;0.00;;;;;;;;;;1731430;28;20223;-65
2022/05/11 04:52:45;;;;;;;0.00;0.00;;;;;;;;;;1736939;28;20199;-66
2022/05/11 04:53:36;;;;;;;0.00;0.00;;;;;;;;;;1738603;28;20203;-65
2022/05/11 04:54:28;;;;;;;0.00;0.00;;;;;;;;;;1736526;28;20199;-66
2022/05/11 04:55:19;;;;;;;0.00;0.00;;;;;;;;;;1735422;28;20226;-67
2022/05/11 04:56:12;;;;;;;0.00;0.00;;;;;;;;;;1737274;28;20194;-65
2022/05/11 04:57:03;;;;;;;0.00;0.00;;;;;;;;;;1738639;28;20817;-65
2022/05/11 04:57:55;;;;;;;0.00;0.00;;;;;;;;;;1738428;28;20227;-65
2022/05/11 04:58:47;;;;;;;0.00;0.00;;;;;;;;;;1737233;28;20203;-64
2022/05/11 04:59:40;;;;;;;0.00;0.00;;;;;;;;;;1737531;28;20635;-66
2022/05/11 05:00:31;;;;;;;0.00;0.00;;;;;;;;;;1735339;28;20265;-65
2022/05/11 05:01:24;;;;;;;0.00;0.00;;;;;;;;;;1736683;28;20207;-65
2022/05/11 05:02:17;;;;;;;0.00;0.00;;;;;;;;;;1737419;28;20218;-65
2022/05/11 05:03:10;;;;;;;0.00;0.00;;;;;;;;;;1735465;28;20264;-65
2022/05/11 05:04:01;;;;;;;0.00;0.00;;;;;;;;;;1737609;28;20214;-65
2022/05/11 05:04:58;;;;;;;0.00;0.00;;;;;;;;;;1738352;28;20287;-65
2022/05/11 05:05:50;;;;;;;0.00;0.00;;;;;;;;;;1737529;28;20246;-64
2022/05/11 05:06:42;;;;;;;0.00;0.00;;;;;;;;;;1739003;28;20203;-65
2022/05/11 05:07:34;;;;;;;0.00;0.00;;;;;;;;;;1736809;28;20290;-65
2022/05/11 05:08:26;;;;;;;0.00;0.00;;;;;;;;;;1737830;28;20203;-65
2022/05/11 05:09:17;;;;;;;0.00;0.00;;;;;;;;;;1736748;28;20219;-65
2022/05/11 05:10:12;;;;;;;0.00;0.00;;;;;;;;;;1736129;28;20301;-65
2022/05/11 05:11:03;;;;;;;0.00;0.00;;;;;;;;;;1735556;28;20295;-65
2022/05/11 05:11:55;;;;;;;0.00;0.00;;;;;;;;;;1738370;28;20302;-65
2022/05/11 05:12:46;;;;;;;0.00;0.00;;;;;;;;;;1736582;28;20203;-65
2022/05/11 05:13:39;;;;;;;0.00;0.00;;;;;;;;;;1738172;28;20561;-65
2022/05/11 05:14:30;;;;;;;0.00;0.00;;;;;;;;;;1737266;28;20207;-65
2022/05/11 05:15:22;;;;;;;0.00;0.00;;;;;;;;;;1736265;28;20210;-65
2022/05/11 05:16:13;;;;;;;0.00;0.00;;;;;;;;;;1738074;28;20195;-65
2022/05/11 05:17:07;;;;;;;0.00;0.00;;;;;;;;;;1737631;28;20221;-65
2022/05/11 05:18:01;;;;;;;0.00;0.00;;;;;;;;;;1738128;28;20211;-65
2022/05/11 05:18:54;;;;;;;0.00;0.00;;;;;;;;;;1737356;28;20293;-66
2022/05/11 05:19:46;;;;;;;0.00;0.00;;;;;;;;;;1737081;28;20207;-64
2022/05/11 05:20:38;;;;;;;0.00;0.00;;;;;;;;;;1735445;28;20222;-64
2022/05/11 05:21:31;;;;;;;0.00;0.00;;;;;;;;;;1728599;28;20369;-63
2022/05/11 05:22:23;;;;;;;0.00;0.00;;;;;;;;;;1736871;28;20290;-64
2022/05/11 05:23:14;;;;;;;0.00;0.00;;;;;;;;;;1739378;28;20210;-63
2022/05/11 05:24:07;;;;;;;0.00;0.00;;;;;;;;;;1738352;28;20206;-63